Time;durP1;ratioP1;P1;durP2;ratioP2;P2;SDS_P1;SDS_P2;PMS_P1;PMS_P2;Temp;Humidity;BMP_temperature;BMP_pressure;BME280_temperature;BME280_humidity;BME280_pressure;Samples;Min_cycle;Max_cycle;Signal;HPM_P1;HPM_P2
2021/11/08 00:00:07;;;;;;;18.17;4.87;;;7.70;99.90;;;;;;5114704;28;20526;-68
2021/11/08 00:02:36;;;;;;;17.07;4.63;;;7.80;99.90;;;;;;5114822;28;20455;-68
2021/11/08 00:05:03;;;;;;;11.53;4.30;;;7.80;99.90;;;;;;5114402;28;20498;-68
2021/11/08 00:07:30;;;;;;;10.00;4.57;;;7.80;99.90;;;;;;5114866;28;20451;-68
2021/11/08 00:09:57;;;;;;;13.07;4.10;;;7.80;99.90;;;;;;5114941;28;20450;-68
2021/11/08 00:12:24;;;;;;;14.80;4.20;;;7.80;99.90;;;;;;5114944;28;20815;-68
2021/11/08 00:14:54;;;;;;;13.10;4.50;;;7.70;99.90;;;;;;5114787;28;20464;-69
2021/11/08 00:17:33;;;;;;;16.17;5.37;;;7.70;99.90;;;;;;5115028;28;20531;-68
2021/11/08 00:20:06;;;;;;;10.37;4.80;;;7.70;99.90;;;;;;5114630;28;20439;-68
2021/11/08 00:22:35;;;;;;;20.30;5.10;;;7.70;99.90;;;;;;5114881;28;20475;-68
2021/11/08 00:25:03;;;;;;;11.03;4.87;;;7.70;99.90;;;;;;5114612;28;20457;-68
2021/11/08 00:27:30;;;;;;;12.53;4.10;;;7.70;99.90;;;;;;5114635;28;20455;-68
2021/11/08 00:29:57;;;;;;;13.03;4.97;;;7.70;99.90;;;;;;5114618;28;20924;-68
2021/11/08 00:32:24;;;;;;;13.93;5.30;;;7.70;99.90;;;;;;5114779;28;20479;-68
2021/11/08 00:34:51;;;;;;;14.33;5.20;;;7.60;99.90;;;;;;5114908;28;20463;-68
2021/11/08 00:37:19;;;;;;;14.47;5.00;;;7.60;99.90;;;;;;5114639;28;20458;-68
2021/11/08 00:39:49;;;;;;;15.93;5.37;;;7.60;99.90;;;;;;5114956;28;20787;-68
2021/11/08 00:42:15;;;;;;;12.37;4.77;;;7.60;99.90;;;;;;5114320;28;20456;-69
2021/11/08 00:44:42;;;;;;;14.30;4.40;;;7.60;99.90;;;;;;5114474;28;20586;-68
2021/11/08 00:47:09;;;;;;;12.97;4.53;;;7.60;99.90;;;;;;5114518;28;20539;-68
2021/11/08 00:49:37;;;;;;;14.90;5.23;;;7.70;99.90;;;;;;5114494;28;20935;-68
2021/11/08 00:52:07;;;;;;;9.23;4.73;;;7.70;99.90;;;;;;5114437;28;20480;-68
2021/11/08 00:54:35;;;;;;;12.27;5.37;;;7.70;99.90;;;;;;5114586;28;20462;-68
2021/11/08 00:57:03;;;;;;;22.90;5.97;;;7.70;99.90;;;;;;5114711;28;20466;-68
2021/11/08 00:59:30;;;;;;;17.57;5.13;;;7.70;99.90;;;;;;5114274;28;20454;-69
2021/11/08 01:01:58;;;;;;;21.80;4.90;;;7.80;99.90;;;;;;5114483;28;20844;-69
2021/11/08 01:04:26;;;;;;;12.03;4.23;;;7.80;99.90;;;;;;5114367;28;20581;-69
2021/11/08 01:06:58;;;;;;;13.30;3.80;;;7.80;99.90;;;;;;5114756;28;20491;-69
2021/11/08 01:09:26;;;;;;;11.73;4.80;;;7.80;99.90;;;;;;5118214;28;20912;-68
2021/11/08 01:11:54;;;;;;;13.07;4.13;;;7.90;99.90;;;;;;5117927;28;20933;-69
2021/11/08 01:14:21;;;;;;;14.17;4.20;;;7.80;99.90;;;;;;5118215;28;20543;-68
2021/11/08 01:16:54;;;;;;;15.17;4.23;;;7.90;99.90;;;;;;5118309;28;20463;-68
2021/11/08 01:19:21;;;;;;;10.17;3.30;;;8.00;99.90;;;;;;5118012;28;20770;-68
2021/11/08 01:21:48;;;;;;;9.30;3.13;;;8.00;99.90;;;;;;5117926;28;20467;-69
2021/11/08 01:24:15;;;;;;;11.40;4.27;;;8.00;99.90;;;;;;5117983;28;20476;-68
2021/11/08 01:26:42;;;;;;;7.70;4.03;;;8.00;99.90;;;;;;5117965;28;20460;-67
2021/11/08 01:29:11;;;;;;;13.37;3.50;;;8.10;99.90;;;;;;5117713;28;20473;-68
2021/11/08 01:31:37;;;;;;;15.73;4.03;;;8.00;99.90;;;;;;5117890;28;20469;-68
2021/11/08 01:34:04;;;;;;;9.80;3.07;;;8.00;99.90;;;;;;5117897;28;20788;-69
2021/11/08 01:36:36;;;;;;;8.17;3.47;;;8.00;99.90;;;;;;5117718;28;20455;-68
2021/11/08 01:39:13;;;;;;;14.60;4.20;;;8.00;99.90;;;;;;5117822;27;20520;-68
2021/11/08 01:41:41;;;;;;;13.70;4.80;;;8.00;99.90;;;;;;5118168;28;20844;-68
2021/11/08 01:44:08;;;;;;;19.43;4.80;;;8.00;99.90;;;;;;5117219;28;20476;-68
2021/11/08 01:46:37;;;;;;;16.03;4.93;;;7.90;99.90;;;;;;5117382;28;20460;-69
2021/11/08 01:49:04;;;;;;;14.70;4.93;;;7.90;99.90;;;;;;5117264;28;20486;-68
2021/11/08 01:51:31;;;;;;;18.50;5.10;;;7.90;99.90;;;;;;5117401;28;20471;-68
2021/11/08 01:53:58;;;;;;;11.53;5.73;;;7.90;99.90;;;;;;5117112;28;20806;-69
2021/11/08 01:56:25;;;;;;;24.30;7.90;;;7.90;99.90;;;;;;5117435;28;20796;-69
2021/11/08 01:58:52;;;;;;;14.50;7.07;;;7.90;99.90;;;;;;5117324;28;20465;-69
2021/11/08 02:01:18;;;;;;;12.83;6.10;;;7.90;99.90;;;;;;5116847;28;20495;-69
2021/11/08 02:03:47;;;;;;;13.83;5.63;;;7.90;99.90;;;;;;5117115;28;20483;-69
2021/11/08 02:06:14;;;;;;;12.77;5.90;;;7.90;99.90;;;;;;5117159;28;20457;-69
2021/11/08 02:08:41;;;;;;;14.20;5.63;;;7.90;99.90;;;;;;5116649;28;20471;-69
2021/11/08 02:11:08;;;;;;;11.33;5.50;;;7.90;99.90;;;;;;5117347;28;20460;-69
2021/11/08 02:13:37;;;;;;;22.17;6.13;;;7.90;99.90;;;;;;5116787;28;20911;-69
2021/11/08 02:16:04;;;;;;;11.17;5.93;;;7.90;99.90;;;;;;5116572;28;20459;-69
2021/11/08 02:18:31;;;;;;;13.03;5.40;;;7.90;99.90;;;;;;5117135;27;20490;-69
2021/11/08 02:21:02;;;;;;;14.37;4.23;;;7.90;99.90;;;;;;5116814;28;20464;-69
2021/11/08 02:23:29;;;;;;;9.90;3.70;;;7.90;99.90;;;;;;5116648;28;20465;-69
2021/11/08 02:26:00;;;;;;;12.43;4.00;;;7.90;99.90;;;;;;5116590;28;20556;-68
2021/11/08 02:28:27;;;;;;;9.30;3.80;;;7.90;99.90;;;;;;5116475;28;20539;-69
2021/11/08 02:30:56;;;;;;;10.23;4.10;;;8.00;99.90;;;;;;5116700;28;20456;-69
2021/11/08 02:33:25;;;;;;;14.53;4.47;;;7.90;99.90;;;;;;5116659;28;20460;-68
2021/11/08 02:35:53;;;;;;;15.63;3.30;;;8.00;99.90;;;;;;5116502;27;20487;-68
2021/11/08 02:38:22;;;;;;;13.20;3.07;;;7.90;99.90;;;;;;5115810;28;20913;-68
2021/11/08 02:40:50;;;;;;;13.07;4.17;;;8.00;99.90;;;;;;5116420;28;20518;-69
2021/11/08 02:43:24;;;;;;;11.60;3.83;;;8.00;99.90;;;;;;5116136;28;20468;-69
2021/11/08 02:45:57;;;;;;;13.47;4.33;;;8.00;99.90;;;;;;5116351;28;20744;-68
2021/11/08 02:48:24;;;;;;;12.27;3.80;;;8.00;99.90;;;;;;5115971;28;20948;-68
2021/11/08 02:50:56;;;;;;;11.33;3.97;;;8.00;99.90;;;;;;5115727;28;20498;-68
2021/11/08 02:53:26;;;;;;;11.63;3.93;;;8.10;99.90;;;;;;5116228;27;20444;-68
2021/11/08 02:55:54;;;;;;;8.13;2.97;;;8.00;99.90;;;;;;5116129;28;20555;-68
2021/11/08 02:58:22;;;;;;;7.97;4.20;;;8.00;99.90;;;;;;5116083;28;20471;-68
2021/11/08 03:00:53;;;;;;;9.70;2.70;;;8.00;99.90;;;;;;5115444;28;20490;-68
2021/11/08 03:03:21;;;;;;;7.90;3.20;;;8.00;99.90;;;;;;5115539;28;20493;-68
2021/11/08 03:05:48;;;;;;;9.90;3.40;;;8.00;99.90;;;;;;5116366;28;20468;-68
2021/11/08 03:08:15;;;;;;;15.60;3.70;;;8.00;99.90;;;;;;5115303;28;20464;-68
2021/11/08 03:10:43;;;;;;;14.13;3.00;;;8.00;99.90;;;;;;5115938;28;20785;-68
2021/11/08 03:13:13;;;;;;;9.80;3.03;;;8.00;99.90;;;;;;5115537;28;20857;-68
2021/11/08 03:15:50;;;;;;;11.83;3.77;;;8.00;99.90;;;;;;5116786;28;20748;-68
2021/11/08 03:18:27;;;;;;;7.93;3.93;;;8.00;99.90;;;;;;5115586;28;20737;-72
2021/11/08 03:20:54;;;;;;;9.13;2.47;;;8.00;99.90;;;;;;5115629;28;20441;-68
2021/11/08 03:23:21;;;;;;;10.57;3.13;;;8.00;99.90;;;;;;5115520;28;20455;-69
2021/11/08 03:25:55;;;;;;;8.13;2.80;;;8.00;99.90;;;;;;5115463;28;20452;-68
2021/11/08 03:28:22;;;;;;;8.00;3.23;;;8.00;99.90;;;;;;5115757;28;20536;-69
2021/11/08 03:30:50;;;;;;;10.47;3.43;;;8.00;99.90;;;;;;5115088;28;20459;-68
2021/11/08 03:33:18;;;;;;;11.43;3.40;;;8.00;99.90;;;;;;5115409;28;20459;-68
2021/11/08 03:35:46;;;;;;;7.03;2.77;;;8.00;99.90;;;;;;5115454;28;20455;-68
2021/11/08 03:38:15;;;;;;;7.20;3.00;;;8.00;99.90;;;;;;5115331;28;20467;-68
2021/11/08 03:40:45;;;;;;;13.30;3.40;;;8.00;99.90;;;;;;5115224;28;20453;-68
2021/11/08 03:43:18;;;;;;;5.07;3.47;;;8.00;99.90;;;;;;5115839;28;20450;-68
2021/11/08 03:45:46;;;;;;;15.47;3.43;;;8.00;99.90;;;;;;5115178;28;20478;-68
2021/11/08 03:48:14;;;;;;;14.70;3.47;;;8.00;99.90;;;;;;5115450;28;20462;-68
2021/11/08 03:50:44;;;;;;;12.10;3.57;;;8.00;99.90;;;;;;5115198;28;20514;-68
2021/11/08 03:53:11;;;;;;;5.20;2.60;;;8.00;99.90;;;;;;5115282;28;20467;-69
2021/11/08 03:55:38;;;;;;;6.33;2.70;;;8.00;99.90;;;;;;5115023;28;20459;-69
2021/11/08 03:58:05;;;;;;;11.40;3.20;;;8.00;99.90;;;;;;5115141;28;20739;-69
2021/11/08 04:00:37;;;;;;;9.50;3.40;;;8.00;99.90;;;;;;5114960;28;20576;-69
2021/11/08 04:03:04;;;;;;;8.60;3.23;;;8.10;99.90;;;;;;5115107;28;20477;-69
2021/11/08 04:05:35;;;;;;;14.40;3.87;;;8.10;99.90;;;;;;5114791;28;20483;-69
2021/11/08 04:08:05;;;;;;;13.03;3.47;;;8.10;99.90;;;;;;5114874;28;20448;-69
2021/11/08 04:10:32;;;;;;;12.03;4.30;;;8.10;99.90;;;;;;5115020;28;20505;-68
2021/11/08 04:13:04;;;;;;;9.43;3.50;;;8.10;99.90;;;;;;5115271;28;20461;-67
2021/11/08 04:15:36;;;;;;;12.77;3.90;;;8.10;99.90;;;;;;5115038;28;20441;-69
2021/11/08 04:18:06;;;;;;;8.70;3.93;;;8.10;99.90;;;;;;5114963;28;20443;-69
2021/11/08 04:20:33;;;;;;;10.33;3.53;;;8.10;99.90;;;;;;5115024;28;20459;-69
2021/11/08 04:23:00;;;;;;;9.17;3.40;;;8.20;99.90;;;;;;5114828;28;20460;-69
2021/11/08 04:25:27;;;;;;;9.13;3.20;;;8.10;99.90;;;;;;5114495;28;20483;-69
2021/11/08 04:27:56;;;;;;;9.97;3.20;;;8.10;99.90;;;;;;5114559;28;20471;-69
2021/11/08 04:30:24;;;;;;;12.50;3.60;;;8.10;99.90;;;;;;5114755;28;20469;-69
2021/11/08 04:33:04;;;;;;;9.00;3.40;;;8.20;99.90;;;;;;5114817;28;20463;-69
2021/11/08 04:35:42;;;;;;;10.50;3.20;;;8.20;99.90;;;;;;5114859;28;20447;-69
2021/11/08 04:38:15;;;;;;;16.50;3.40;;;8.20;99.90;;;;;;5114311;28;20455;-69
2021/11/08 04:40:46;;;;;;;12.27;3.53;;;8.20;99.90;;;;;;5114681;28;20911;-69
2021/11/08 04:43:25;;;;;;;14.57;4.07;;;8.20;99.90;;;;;;5118181;28;20440;-69
2021/11/08 04:46:22;;;;;;;9.27;2.83;;;8.30;99.90;;;;;;5118613;28;20464;-69
2021/11/08 04:48:57;;;;;;;13.07;3.60;;;8.30;99.90;;;;;;5118376;28;20642;-69
2021/11/08 04:51:33;;;;;;;13.07;3.33;;;8.30;99.90;;;;;;5118289;28;20447;-68
2021/11/08 04:54:08;;;;;;;11.63;3.83;;;8.30;99.90;;;;;;5118346;27;20458;-69
2021/11/08 05:21:30;;;;;;;16.37;4.50;;;8.40;99.90;;;;;;5117836;28;20422;-69
2021/11/08 05:32:12;;;;;;;8.87;4.03;;;8.40;99.90;;;;;;5099726;27;20472;-69
2021/11/08 05:34:39;;;;;;;17.60;3.93;;;8.40;99.90;;;;;;5117960;28;20504;-69
2021/11/08 05:37:09;;;;;;;19.20;4.47;;;8.40;99.90;;;;;;5117805;27;20778;-69
2021/11/08 05:39:36;;;;;;;13.13;3.90;;;8.40;99.90;;;;;;5118609;28;20456;-69
2021/11/08 05:42:03;;;;;;;19.37;3.93;;;8.40;99.90;;;;;;5117540;27;20785;-69
2021/11/08 05:44:32;;;;;;;14.63;3.60;;;8.40;99.90;;;;;;5116927;28;21002;-69
2021/11/08 05:46:59;;;;;;;12.67;3.80;;;8.50;99.90;;;;;;5117605;28;20464;-69
2021/11/08 05:49:26;;;;;;;14.20;3.93;;;8.50;99.90;;;;;;5117490;28;20455;-69
2021/11/08 05:51:53;;;;;;;15.53;4.50;;;8.50;99.90;;;;;;5117512;28;20908;-69
2021/11/08 05:54:21;;;;;;;8.83;3.50;;;8.50;99.90;;;;;;5116851;28;20456;-69
2021/11/08 05:57:02;;;;;;;11.97;4.47;;;8.50;99.90;;;;;;5117273;28;20725;-68
2021/11/08 06:51:30;;;;;;;17.87;3.97;;;8.70;99.90;;;;;;5115591;28;20429;-68
2021/11/08 06:54:01;;;;;;;12.93;3.60;;;8.70;99.90;;;;;;5115718;28;20490;-69
2021/11/08 06:56:31;;;;;;;11.30;2.87;;;8.70;99.90;;;;;;5116040;28;20776;-68
2021/11/08 06:59:03;;;;;;;10.40;2.97;;;8.80;99.90;;;;;;5115809;28;20870;-68
2021/11/08 07:01:30;;;;;;;10.80;2.87;;;8.70;99.90;;;;;;5115488;28;20795;-68
2021/11/08 07:03:57;;;;;;;12.30;3.37;;;8.80;99.90;;;;;;5115845;28;20471;-69
2021/11/08 07:06:24;;;;;;;10.03;3.40;;;8.80;99.90;;;;;;5115030;28;20792;-69
2021/11/08 07:08:51;;;;;;;14.17;3.67;;;8.80;99.90;;;;;;5115847;28;20547;-69
2021/11/08 07:11:18;;;;;;;8.70;3.37;;;8.90;99.90;;;;;;5115488;28;20461;-69
2021/11/08 07:13:45;;;;;;;13.77;3.60;;;8.90;99.90;;;;;;5115473;27;20536;-69
2021/11/08 07:16:14;;;;;;;11.43;3.40;;;9.00;99.90;;;;;;5115748;28;20456;-69
2021/11/08 07:18:40;;;;;;;17.17;3.70;;;9.00;99.90;;;;;;5115375;28;20457;-68
2021/11/08 07:21:07;;;;;;;10.23;3.30;;;9.00;99.90;;;;;;5115544;28;20456;-68
2021/11/08 07:23:34;;;;;;;9.73;3.43;;;9.00;99.90;;;;;;5115563;27;20533;-68
2021/11/08 07:26:04;;;;;;;8.50;3.40;;;9.00;99.90;;;;;;5115466;28;20472;-68
2021/11/08 07:28:30;;;;;;;15.63;3.63;;;9.00;99.90;;;;;;5115395;28;20457;-69
2021/11/08 07:30:58;;;;;;;12.73;4.10;;;9.00;99.90;;;;;;5115404;28;20464;-69
2021/11/08 07:33:27;;;;;;;9.30;3.60;;;9.00;99.90;;;;;;5115267;28;20492;-69
2021/11/08 07:35:53;;;;;;;11.23;3.93;;;9.10;99.90;;;;;;5115529;28;20463;-69
2021/11/08 07:38:20;;;;;;;6.80;3.37;;;9.10;99.90;;;;;;5115123;28;20451;-69
2021/11/08 07:40:47;;;;;;;7.63;3.37;;;9.10;99.90;;;;;;5115006;28;20927;-68
2021/11/08 07:43:13;;;;;;;13.73;4.07;;;9.10;99.90;;;;;;5115126;28;20456;-69
2021/11/08 07:45:40;;;;;;;15.10;4.90;;;9.10;99.90;;;;;;5114799;28;20484;-69
2021/11/08 07:48:08;;;;;;;10.33;2.83;;;9.20;99.90;;;;;;5115238;28;20470;-69
2021/11/08 07:50:36;;;;;;;11.00;3.77;;;9.10;99.90;;;;;;5114994;28;20478;-69
2021/11/08 07:53:03;;;;;;;10.60;3.50;;;9.10;99.90;;;;;;5115008;28;20469;-68
2021/11/08 07:55:30;;;;;;;7.23;3.20;;;9.10;99.90;;;;;;5114631;28;20783;-69
2021/11/08 07:57:57;;;;;;;11.17;2.83;;;9.20;99.90;;;;;;5115010;28;20777;-69
2021/11/08 08:00:23;;;;;;;12.13;4.00;;;9.20;99.90;;;;;;5114610;28;20477;-69
2021/11/08 08:02:50;;;;;;;7.63;3.23;;;9.20;99.90;;;;;;5115241;28;20473;-68
2021/11/08 08:05:19;;;;;;;8.03;2.63;;;9.20;99.90;;;;;;5114816;28;20481;-68
2021/11/08 08:07:47;;;;;;;15.60;3.03;;;9.20;99.90;;;;;;5114790;28;20470;-68
2021/11/08 08:10:15;;;;;;;6.83;2.50;;;9.30;99.90;;;;;;5114752;28;20457;-69
2021/11/08 08:12:42;;;;;;;5.37;2.57;;;9.20;99.90;;;;;;5114414;28;20463;-69
2021/11/08 08:15:09;;;;;;;8.70;3.20;;;9.30;99.90;;;;;;5114984;28;20547;-68
2021/11/08 08:17:37;;;;;;;11.50;3.20;;;9.30;99.90;;;;;;5118497;28;20458;-69
2021/11/08 08:20:05;;;;;;;5.73;3.13;;;9.30;99.90;;;;;;5119475;28;20503;-68
2021/11/08 08:22:32;;;;;;;13.57;3.40;;;9.40;99.90;;;;;;5118695;28;20471;-68
2021/11/08 08:25:00;;;;;;;8.20;2.60;;;9.40;99.90;;;;;;5119079;28;20477;-69
2021/11/08 08:27:27;;;;;;;6.40;4.33;;;9.40;99.90;;;;;;5118844;28;20467;-69
2021/11/08 08:29:54;;;;;;;8.57;2.70;;;9.40;99.90;;;;;;5118761;28;20460;-69
2021/11/08 08:32:20;;;;;;;7.77;2.53;;;9.30;99.90;;;;;;5118639;28;20453;-69
2021/11/08 08:34:47;;;;;;;10.67;2.47;;;9.40;99.90;;;;;;5119180;28;20453;-70
2021/11/08 08:37:15;;;;;;;11.47;2.47;;;9.40;99.90;;;;;;5118906;28;20460;-68
2021/11/08 08:39:42;;;;;;;5.70;3.10;;;9.50;99.90;;;;;;5118444;28;20471;-68
2021/11/08 08:42:11;;;;;;;8.70;3.10;;;9.50;99.90;;;;;;5119042;28;20448;-69
2021/11/08 08:44:37;;;;;;;6.90;2.57;;;9.50;99.90;;;;;;5118919;28;20455;-69
2021/11/08 08:47:04;;;;;;;8.80;2.33;;;9.50;99.90;;;;;;5117887;28;20483;-69
2021/11/08 08:49:31;;;;;;;12.13;3.00;;;9.50;99.90;;;;;;5118548;28;20584;-68
2021/11/08 08:51:58;;;;;;;9.30;2.60;;;9.60;99.90;;;;;;5119062;28;20749;-68
2021/11/08 08:54:25;;;;;;;5.07;2.73;;;9.60;99.90;;;;;;5118597;28;20456;-68
2021/11/08 08:56:53;;;;;;;8.50;2.50;;;9.60;99.90;;;;;;5118147;28;20465;-68
2021/11/08 08:59:21;;;;;;;4.87;2.40;;;9.60;99.90;;;;;;5117858;28;20458;-69
2021/11/08 09:01:49;;;;;;;6.03;3.00;;;9.60;99.90;;;;;;5117580;28;20477;-69
2021/11/08 09:04:16;;;;;;;5.50;2.43;;;9.60;99.90;;;;;;5119078;27;20746;-68
2021/11/08 09:06:43;;;;;;;7.33;2.23;;;9.60;99.90;;;;;;5119539;28;20809;-68
2021/11/08 09:09:10;;;;;;;4.53;2.20;;;9.60;99.90;;;;;;5118633;28;20513;-68
2021/11/08 09:11:36;;;;;;;6.00;2.13;;;9.60;99.90;;;;;;5118084;28;20518;-68
2021/11/08 09:14:04;;;;;;;7.13;2.00;;;9.60;99.90;;;;;;5118427;27;20468;-68
2021/11/08 09:16:34;;;;;;;9.57;2.50;;;9.60;99.90;;;;;;5118646;27;20456;-69
2021/11/08 09:19:01;;;;;;;11.47;2.67;;;9.60;99.90;;;;;;5119051;28;20463;-69
2021/11/08 09:21:29;;;;;;;3.13;2.17;;;9.60;99.90;;;;;;5119363;27;20455;-71
2021/11/08 09:23:58;;;;;;;12.20;2.90;;;9.60;99.90;;;;;;5118312;28;20453;-68
2021/11/08 09:26:26;;;;;;;8.90;2.70;;;9.60;99.90;;;;;;5118173;28;20504;-68
2021/11/08 09:28:54;;;;;;;8.07;2.47;;;9.60;99.90;;;;;;5117286;28;20464;-68
2021/11/08 09:31:22;;;;;;;5.40;2.37;;;9.60;99.90;;;;;;5118070;28;20466;-69
2021/11/08 09:33:52;;;;;;;6.20;2.40;;;9.60;99.90;;;;;;5118021;28;20462;-69
2021/11/08 09:36:20;;;;;;;5.40;3.00;;;9.60;99.90;;;;;;5117759;28;20452;-70
2021/11/08 09:38:53;;;;;;;7.60;2.17;;;9.50;99.90;;;;;;5117885;28;20772;-68
2021/11/08 09:41:29;;;;;;;5.50;2.43;;;9.60;99.90;;;;;;5117734;28;20438;-68
2021/11/08 09:43:57;;;;;;;6.57;2.67;;;9.60;99.90;;;;;;5117423;28;20449;-69
2021/11/08 09:46:24;;;;;;;8.70;2.43;;;9.70;99.90;;;;;;5117229;28;20578;-68
2021/11/08 09:48:53;;;;;;;8.17;2.50;;;9.70;99.90;;;;;;5117172;28;20842;-68
2021/11/08 09:51:20;;;;;;;7.23;2.37;;;9.80;99.90;;;;;;5117527;28;20768;-69
2021/11/08 09:53:47;;;;;;;9.30;2.43;;;9.80;99.90;;;;;;5117477;28;20513;-69
2021/11/08 09:56:15;;;;;;;10.33;2.70;;;9.90;99.90;;;;;;5116712;28;20450;-68
2021/11/08 09:58:42;;;;;;;8.03;2.03;;;9.90;99.90;;;;;;5117217;28;20494;-69
2021/11/08 10:01:12;;;;;;;7.20;2.83;;;9.90;99.90;;;;;;5116441;27;20477;-69
2021/11/08 10:03:41;;;;;;;6.37;2.73;;;9.90;99.90;;;;;;5116692;28;20457;-67
2021/11/08 10:06:09;;;;;;;8.30;2.57;;;9.90;99.90;;;;;;5116937;28;21020;-69
2021/11/08 10:08:38;;;;;;;10.00;2.77;;;9.90;99.90;;;;;;5117005;27;20473;-69
2021/11/08 10:11:15;;;;;;;6.50;2.50;;;9.90;99.90;;;;;;5117092;28;20541;-69
2021/11/08 10:13:42;;;;;;;9.30;3.10;;;9.90;99.90;;;;;;5116804;28;20777;-67
2021/11/08 10:16:12;;;;;;;13.77;3.53;;;9.90;99.90;;;;;;5117076;28;20455;-68
2021/11/08 10:18:40;;;;;;;9.13;2.87;;;9.90;99.90;;;;;;5117259;28;20773;-68
2021/11/08 10:21:11;;;;;;;11.40;3.97;;;10.00;99.90;;;;;;5116767;28;20453;-68
2021/11/08 10:23:40;;;;;;;5.60;2.57;;;10.00;99.90;;;;;;5116599;28;20914;-68
2021/11/08 10:26:09;;;;;;;9.47;3.27;;;10.00;99.90;;;;;;5116435;27;20480;-69
2021/11/08 10:28:37;;;;;;;7.87;2.20;;;10.10;99.90;;;;;;5116746;28;20468;-69
2021/11/08 10:31:10;;;;;;;8.37;2.37;;;10.10;99.90;;;;;;5116496;28;20543;-68
2021/11/08 10:33:38;;;;;;;12.53;3.10;;;10.20;99.90;;;;;;5116156;28;20450;-69
2021/11/08 10:36:12;;;;;;;12.93;3.90;;;10.30;99.90;;;;;;5116465;27;20579;-69
2021/11/08 10:38:41;;;;;;;9.73;2.97;;;10.40;99.90;;;;;;5116582;28;20437;-69
2021/11/08 10:41:10;;;;;;;8.60;3.37;;;10.50;99.90;;;;;;5115100;28;20459;-69
2021/11/08 10:43:40;;;;;;;8.80;3.10;;;10.50;99.90;;;;;;5116526;28;20816;-69
2021/11/08 10:46:11;;;;;;;10.50;2.57;;;10.50;99.90;;;;;;5116062;28;20482;-68
2021/11/08 10:48:41;;;;;;;11.50;3.03;;;10.50;99.90;;;;;;5116584;28;20772;-68
2021/11/08 10:51:11;;;;;;;11.37;2.90;;;10.50;99.90;;;;;;5115672;27;20470;-69
2021/11/08 10:53:47;;;;;;;9.93;3.33;;;10.50;99.90;;;;;;5115821;28;20445;-68
2021/11/08 10:56:18;;;;;;;7.10;2.10;;;10.60;99.90;;;;;;5115720;28;20948;-68
2021/11/08 10:58:47;;;;;;;6.93;2.37;;;10.60;99.90;;;;;;5116009;28;20514;-67
2021/11/08 11:01:22;;;;;;;18.03;3.67;;;10.70;99.90;;;;;;5115998;28;20484;-67
2021/11/08 11:03:51;;;;;;;9.90;2.90;;;10.70;99.90;;;;;;5115958;28;20443;-67
2021/11/08 11:06:20;;;;;;;3.83;2.00;;;10.70;99.90;;;;;;5115897;28;20496;-69
2021/11/08 11:08:54;;;;;;;11.33;2.70;;;10.70;99.90;;;;;;5115970;28;20910;-68
2021/11/08 11:11:24;;;;;;;6.70;2.17;;;10.70;99.90;;;;;;5115403;28;20443;-68
2021/11/08 11:13:53;;;;;;;9.37;2.93;;;10.70;99.90;;;;;;5116911;28;20455;-69
2021/11/08 11:16:32;;;;;;;6.20;2.87;;;10.70;99.90;;;;;;5115545;28;20457;-68
2021/11/08 11:19:04;;;;;;;9.80;2.10;;;10.80;99.90;;;;;;5115432;28;20441;-68
2021/11/08 11:21:33;;;;;;;9.00;2.37;;;10.80;99.90;;;;;;5115988;28;20781;-68
2021/11/08 11:24:03;;;;;;;6.40;2.10;;;10.90;99.90;;;;;;5115195;28;20456;-68
2021/11/08 11:26:34;;;;;;;4.33;1.70;;;10.90;99.90;;;;;;5115290;28;20466;-68
2021/11/08 11:29:01;;;;;;;5.97;2.70;;;10.90;99.90;;;;;;5115403;28;20832;-68
2021/11/08 11:31:38;;;;;;;5.60;2.57;;;11.00;99.90;;;;;;5115368;28;20764;-68
2021/11/08 11:34:13;;;;;;;7.00;2.10;;;11.00;99.90;;;;;;5115204;28;20444;-68
2021/11/08 11:36:43;;;;;;;7.50;2.20;;;11.00;99.90;;;;;;5115655;28;20463;-68
2021/11/08 11:39:13;;;;;;;6.97;2.43;;;11.00;99.90;;;;;;5115319;28;20456;-68
2021/11/08 11:41:43;;;;;;;7.27;2.20;;;11.10;99.90;;;;;;5117391;28;20557;-68
2021/11/08 11:44:14;;;;;;;5.30;2.63;;;11.10;99.90;;;;;;5115862;28;20457;-68
2021/11/08 11:46:44;;;;;;;5.53;2.23;;;11.10;99.90;;;;;;5114571;28;20464;-69
2021/11/08 11:49:12;;;;;;;12.80;3.10;;;11.10;99.90;;;;;;5115277;28;20787;-68
2021/11/08 11:51:42;;;;;;;7.97;2.30;;;11.20;99.90;;;;;;5114639;28;20463;-68
2021/11/08 11:54:10;;;;;;;12.13;1.83;;;11.20;99.90;;;;;;5115460;28;20809;-68
2021/11/08 11:56:41;;;;;;;6.93;1.80;;;11.20;99.90;;;;;;5115201;28;20470;-68
2021/11/08 11:59:11;;;;;;;6.07;2.00;;;11.30;99.90;;;;;;5114852;28;20467;-68
2021/11/08 12:01:39;;;;;;;12.10;2.37;;;11.20;99.90;;;;;;5114125;28;20570;-69
2021/11/08 12:04:07;;;;;;;9.20;2.23;;;11.20;99.90;;;;;;5114442;28;20464;-67
2021/11/08 12:06:37;;;;;;;8.43;2.20;;;11.30;99.90;;;;;;5114811;28;20485;-67
2021/11/08 12:09:08;;;;;;;6.27;2.43;;;11.30;99.90;;;;;;5115011;28;20465;-68
2021/11/08 12:11:39;;;;;;;8.10;2.50;;;11.30;99.90;;;;;;5114867;28;20444;-67
2021/11/08 12:14:13;;;;;;;8.23;2.53;;;11.30;99.90;;;;;;5114951;28;20444;-69
2021/11/08 12:16:50;;;;;;;8.73;2.70;;;11.30;99.90;;;;;;5114601;28;20443;-67
2021/11/08 12:19:18;;;;;;;11.53;3.03;;;11.30;99.90;;;;;;5114978;28;20480;-68
2021/11/08 12:21:45;;;;;;;7.43;3.33;;;11.20;99.90;;;;;;5114601;28;20534;-69
2021/11/08 12:24:19;;;;;;;13.17;2.50;;;11.30;99.90;;;;;;5114408;28;20471;-68
2021/11/08 12:26:46;;;;;;;4.70;1.83;;;11.40;99.90;;;;;;5114628;28;20472;-67
2021/11/08 12:29:16;;;;;;;11.53;2.70;;;11.40;99.90;;;;;;5114502;28;20460;-69
2021/11/08 12:31:43;;;;;;;10.50;2.33;;;11.40;99.90;;;;;;5114632;28;20461;-69
2021/11/08 12:34:14;;;;;;;8.27;2.40;;;11.40;99.90;;;;;;5114094;28;20460;-69
2021/11/08 12:36:41;;;;;;;9.37;2.83;;;11.40;99.90;;;;;;5114705;28;20434;-68
2021/11/08 12:39:11;;;;;;;11.60;2.37;;;11.30;99.90;;;;;;5114527;28;20786;-68
2021/11/08 12:41:46;;;;;;;7.57;2.10;;;11.30;99.90;;;;;;5114457;28;20535;-68
2021/11/08 12:44:15;;;;;;;7.87;2.20;;;11.20;99.90;;;;;;5115038;28;20508;-68
2021/11/08 12:46:46;;;;;;;7.70;2.23;;;11.20;99.90;;;;;;5114818;28;20477;-68
2021/11/08 12:49:16;;;;;;;6.80;2.40;;;11.20;99.90;;;;;;5115673;28;20444;-67
2021/11/08 12:51:54;;;;;;;7.73;1.90;;;11.20;99.90;;;;;;5113864;28;20908;-68
2021/11/08 12:54:21;;;;;;;12.00;2.80;;;11.20;99.90;;;;;;5114607;28;20444;-70
2021/11/08 12:56:49;;;;;;;17.90;2.43;;;11.10;99.90;;;;;;5114308;28;20513;-68
2021/11/08 12:59:22;;;;;;;7.93;2.00;;;11.10;99.90;;;;;;5114192;28;20456;-69
2021/11/08 13:01:52;;;;;;;8.10;2.43;;;11.00;99.90;;;;;;5114149;28;20482;-68
2021/11/08 13:04:31;;;;;;;9.73;2.03;;;11.00;99.90;;;;;;5117152;28;20528;-68
2021/11/08 13:07:05;;;;;;;8.10;2.13;;;11.00;99.90;;;;;;5117816;28;20532;-69
2021/11/08 13:09:39;;;;;;;7.47;2.40;;;11.00;99.90;;;;;;5117877;28;20444;-72
2021/11/08 13:12:14;;;;;;;11.13;3.17;;;11.00;99.90;;;;;;5117990;28;20555;-69
2021/11/08 13:14:40;;;;;;;9.70;2.17;;;11.10;99.90;;;;;;5118397;28;20436;-69
2021/11/08 13:17:10;;;;;;;8.53;2.60;;;11.10;99.90;;;;;;5118077;27;20464;-69
2021/11/08 13:19:49;;;;;;;5.30;1.67;;;11.20;99.90;;;;;;5117262;28;20924;-69
2021/11/08 13:22:20;;;;;;;10.20;2.03;;;11.30;99.90;;;;;;5118435;28;20448;-69
2021/11/08 13:25:04;;;;;;;4.37;1.90;;;11.30;99.90;;;;;;5117817;28;20524;-68
2021/11/08 13:27:33;;;;;;;12.40;2.13;;;11.30;99.90;;;;;;5117427;28;20464;-69
2021/11/08 13:30:02;;;;;;;9.63;2.20;;;11.30;99.90;;;;;;5117348;28;20454;-68
2021/11/08 13:32:29;;;;;;;7.20;1.87;;;11.20;99.90;;;;;;5117637;27;20459;-67
2021/11/08 13:34:58;;;;;;;11.07;2.03;;;11.20;99.90;;;;;;5117522;28;20465;-70
2021/11/08 13:37:35;;;;;;;5.57;2.37;;;11.20;99.90;;;;;;5117176;28;20461;-68
2021/11/08 13:40:14;;;;;;;6.13;1.70;;;11.20;99.90;;;;;;5117541;28;20437;-67
2021/11/08 13:42:42;;;;;;;10.73;2.37;;;11.30;99.90;;;;;;5117645;28;20452;-69
2021/11/08 13:45:12;;;;;;;5.77;2.20;;;11.30;99.90;;;;;;5117408;28;20467;-69
2021/11/08 13:47:40;;;;;;;4.53;2.40;;;11.30;99.90;;;;;;5117668;28;20839;-69
2021/11/08 13:50:12;;;;;;;9.97;2.50;;;11.30;99.90;;;;;;5117635;28;20464;-69
2021/11/08 13:52:41;;;;;;;5.43;2.00;;;11.20;99.90;;;;;;5117587;28;20464;-69
2021/11/08 13:55:09;;;;;;;7.13;1.53;;;11.20;99.90;;;;;;5117107;28;20543;-69
2021/11/08 13:57:40;;;;;;;7.40;2.13;;;11.20;99.90;;;;;;5117313;28;20483;-69
2021/11/08 14:00:12;;;;;;;8.67;1.50;;;11.20;99.90;;;;;;5116999;28;20480;-69
2021/11/08 14:02:39;;;;;;;13.93;2.87;;;11.20;99.90;;;;;;5117601;27;20453;-68
2021/11/08 14:05:07;;;;;;;8.30;2.50;;;11.20;99.90;;;;;;5118575;28;20453;-69
2021/11/08 14:07:33;;;;;;;4.63;1.73;;;11.30;99.90;;;;;;5117234;28;20478;-68
2021/11/08 14:10:01;;;;;;;6.17;1.90;;;11.30;99.90;;;;;;5117555;28;20471;-68
2021/11/08 14:12:31;;;;;;;6.50;2.03;;;11.30;99.90;;;;;;5118001;28;20463;-68
2021/11/08 14:14:59;;;;;;;11.73;2.33;;;11.30;99.90;;;;;;5117570;28;20949;-69
2021/11/08 14:17:29;;;;;;;9.33;2.03;;;11.30;99.90;;;;;;5117612;28;20461;-68
2021/11/08 14:19:58;;;;;;;7.20;2.03;;;11.30;99.90;;;;;;5117485;28;20447;-69
2021/11/08 14:22:26;;;;;;;6.77;2.30;;;11.30;99.90;;;;;;5116636;28;20822;-69